PRSAU SBSG-GVAC
Flight info
| Callsign | PRSAU |
|---|---|
| Flight time | N/A |
| Altitude | 41000 |
| Route | ILMIG DCT FNR DCT OBKAD DCT BODAK DCT RAKUD DCT IRAKU DCT MOGNI DCT ODMEN DCT SNT AMDER1F |
| Aircraft | GLF6/M-SFGHIRWXY/S |
Departure
| Time | 2026-05-07 13:51 |
|---|---|
| Airport | Rio Grande do Norte/São Gonçalo do Amarante–Governador Aluízio Alves International Airport (SBSG) |
Arrival
| Time | N/A |
|---|---|
| Airport | Amílcar Cabral International Airport (GVAC) |
| Time | Latitude | Longitude | Altitude | Speed | Heading |
|---|---|---|---|---|---|
| 2026-05-07 13:23 | -5.76427 | -35.37730 | 290 ft | 0 kts | 145° |
| 2026-05-07 13:46 | -5.76434 | -35.37725 | 289 ft | 3 kts | 145° |
| 2026-05-07 13:46 | -5.76459 | -35.37696 | 289 ft | 8 kts | 105° |
| 2026-05-07 13:46 | -5.76470 | -35.37622 | 289 ft | 12 kts | 100° |
| 2026-05-07 13:47 | -5.76486 | -35.37530 | 289 ft | 14 kts | 98° |
| 2026-05-07 13:47 | -5.76502 | -35.37425 | 289 ft | 15 kts | 99° |
| 2026-05-07 13:47 | -5.76519 | -35.37322 | 289 ft | 14 kts | 99° |
| 2026-05-07 13:47 | -5.76556 | -35.37246 | 289 ft | 11 kts | 166° |
| 2026-05-07 13:48 | -5.76633 | -35.37253 | 289 ft | 11 kts | 188° |
| 2026-05-07 13:48 | -5.76701 | -35.37285 | 289 ft | 12 kts | 253° |
| 2026-05-07 13:48 | -5.76692 | -35.37377 | 289 ft | 14 kts | 279° |
| 2026-05-07 13:48 | -5.76674 | -35.37490 | 289 ft | 17 kts | 278° |
| 2026-05-07 13:49 | -5.76654 | -35.37623 | 289 ft | 21 kts | 279° |
| 2026-05-07 13:49 | -5.76630 | -35.37779 | 289 ft | 22 kts | 278° |
| 2026-05-07 13:49 | -5.76611 | -35.37919 | 289 ft | 15 kts | 261° |
| 2026-05-07 13:49 | -5.76688 | -35.37968 | 289 ft | 13 kts | 187° |
| 2026-05-07 13:50 | -5.76768 | -35.37960 | 289 ft | 11 kts | 130° |
| 2026-05-07 13:50 | -5.76782 | -35.37891 | 289 ft | 9 kts | 95° |
| 2026-05-07 13:50 | -5.76792 | -35.37830 | 289 ft | 9 kts | 100° |
| 2026-05-07 13:50 | -5.76811 | -35.37724 | 289 ft | 32 kts | 99° |
| 2026-05-07 13:51 | -5.76888 | -35.37250 | 289 ft | 101 kts | 99° |
| 2026-05-07 13:51 | -5.77028 | -35.36367 | 354 ft | 147 kts | 101° |
| 2026-05-07 13:51 | -5.77169 | -35.35421 | 1116 ft | 134 kts | 101° |
| 2026-05-07 13:51 | -5.77083 | -35.34418 | 1489 ft | 164 kts | 87° |
| 2026-05-07 13:52 | -5.76966 | -35.33190 | 2110 ft | 181 kts | 89° |
| 2026-05-07 13:52 | -5.76876 | -35.31927 | 2778 ft | 201 kts | 90° |
| 2026-05-07 13:52 | -5.76803 | -35.30309 | 2906 ft | 253 kts | 90° |
| 2026-05-07 13:52 | -5.76747 | -35.28559 | 4095 ft | 255 kts | 91° |
| 2026-05-07 13:53 | -5.76709 | -35.26817 | 5287 ft | 258 kts | 91° |
| 2026-05-07 13:53 | -5.76681 | -35.25005 | 6399 ft | 265 kts | 91° |
| 2026-05-07 13:53 | -5.76659 | -35.23199 | 7548 ft | 267 kts | 90° |
| 2026-05-07 13:53 | -5.76640 | -35.21329 | 8574 ft | 274 kts | 90° |
| 2026-05-07 13:54 | -5.76622 | -35.19403 | 9582 ft | 281 kts | 90° |
| 2026-05-07 13:54 | -5.76604 | -35.17413 | 10382 ft | 297 kts | 90° |
| 2026-05-07 13:54 | -5.76586 | -35.15185 | 10381 ft | 340 kts | 90° |
| 2026-05-07 13:54 | -5.76565 | -35.12759 | 11225 ft | 351 kts | 90° |
| 2026-05-07 13:55 | -5.76545 | -35.10312 | 12230 ft | 357 kts | 90° |
| 2026-05-07 13:55 | -5.76524 | -35.07805 | 13137 ft | 365 kts | 90° |
| 2026-05-07 13:55 | -5.76504 | -35.05251 | 14062 ft | 372 kts | 90° |
| 2026-05-07 13:55 | -5.76483 | -35.02625 | 14990 ft | 379 kts | 89° |
| 2026-05-07 13:56 | -5.76461 | -34.99987 | 15868 ft | 386 kts | 88° |
| 2026-05-07 13:56 | -5.76434 | -34.97284 | 16726 ft | 393 kts | 87° |
| 2026-05-07 13:56 | -5.75854 | -34.94583 | 17518 ft | 397 kts | 65° |
| 2026-05-07 13:56 | -5.74657 | -34.92121 | 18441 ft | 399 kts | 62° |
| 2026-05-07 13:57 | -5.73405 | -34.89621 | 19346 ft | 404 kts | 62° |
| 2026-05-07 13:57 | -5.72137 | -34.87091 | 20208 ft | 410 kts | 61° |
| 2026-05-07 13:57 | -5.70850 | -34.84523 | 21139 ft | 413 kts | 61° |
| 2026-05-07 13:57 | -5.69559 | -34.81947 | 22006 ft | 418 kts | 60° |
| 2026-05-07 13:58 | -5.68239 | -34.79317 | 22812 ft | 424 kts | 60° |
| 2026-05-07 13:58 | -5.66901 | -34.76651 | 23556 ft | 432 kts | 60° |
| 2026-05-07 13:58 | -5.65553 | -34.73962 | 24341 ft | 438 kts | 61° |
| 2026-05-07 13:58 | -5.64180 | -34.71227 | 25120 ft | 445 kts | 61° |
| 2026-05-07 13:59 | -5.62765 | -34.68405 | 25864 ft | 452 kts | 62° |
| 2026-05-07 13:59 | -5.61350 | -34.65584 | 26599 ft | 458 kts | 62° |
| 2026-05-07 13:59 | -5.59911 | -34.62715 | 27309 ft | 464 kts | 62° |
| 2026-05-07 13:59 | -5.58441 | -34.59786 | 27960 ft | 471 kts | 62° |
| 2026-05-07 14:00 | -5.56963 | -34.56840 | 28600 ft | 477 kts | 62° |
| 2026-05-07 14:00 | -5.55351 | -34.53936 | 29204 ft | 481 kts | 53° |
| 2026-05-07 14:00 | -5.53084 | -34.51450 | 29950 ft | 481 kts | 43° |
| 2026-05-07 14:00 | -5.50687 | -34.49069 | 30651 ft | 485 kts | 43° |
| 2026-05-07 14:01 | -5.48313 | -34.46715 | 31501 ft | 484 kts | 43° |
| 2026-05-07 14:01 | -5.45931 | -34.44352 | 32496 ft | 480 kts | 43° |
| 2026-05-07 14:01 | -5.43549 | -34.41994 | 33592 ft | 475 kts | 43° |
| 2026-05-07 14:01 | -5.41222 | -34.39690 | 34802 ft | 467 kts | 43° |
| 2026-05-07 14:02 | -5.38941 | -34.37432 | 35946 ft | 460 kts | 43° |
| 2026-05-07 14:02 | -5.36697 | -34.35209 | 36939 ft | 455 kts | 44° |
| 2026-05-07 14:02 | -5.34427 | -34.32962 | 37694 ft | 455 kts | 44° |
| 2026-05-07 14:02 | -5.32168 | -34.30725 | 38598 ft | 450 kts | 44° |
| 2026-05-07 14:03 | -5.29932 | -34.28512 | 39434 ft | 449 kts | 44° |
| 2026-05-07 14:03 | -5.27667 | -34.26269 | 39912 ft | 452 kts | 43° |
| 2026-05-07 14:03 | -5.25410 | -34.24035 | 40499 ft | 454 kts | 44° |
| 2026-05-07 14:03 | -5.23129 | -34.21779 | 40984 ft | 459 kts | 43° |
| 2026-05-07 14:04 | -5.20770 | -34.19446 | 40938 ft | 472 kts | 44° |
| 2026-05-07 14:04 | -5.18381 | -34.17081 | 40950 ft | 484 kts | 43° |
| 2026-05-07 14:04 | -5.15947 | -34.14674 | 40951 ft | 495 kts | 43° |
| 2026-05-07 14:05 | -5.10964 | -34.09745 | 40943 ft | 511 kts | 44° |
| 2026-05-07 14:05 | -5.05871 | -34.04709 | 40940 ft | 514 kts | 44° |
| 2026-05-07 14:06 | -5.00780 | -33.99659 | 40926 ft | 514 kts | 46° |
| 2026-05-07 14:06 | -4.96401 | -33.93900 | 40901 ft | 516 kts | 53° |
| 2026-05-07 14:07 | -4.92169 | -33.88108 | 40929 ft | 516 kts | 53° |
| 2026-05-07 14:07 | -4.87895 | -33.82268 | 40923 ft | 516 kts | 53° |
| 2026-05-07 14:08 | -4.83645 | -33.76463 | 40924 ft | 516 kts | 53° |
| 2026-05-07 14:08 | -4.79381 | -33.70641 | 40924 ft | 516 kts | 53° |
| 2026-05-07 14:09 | -4.75120 | -33.64823 | 40925 ft | 516 kts | 53° |
| 2026-05-07 14:09 | -4.70871 | -33.59023 | 40925 ft | 515 kts | 53° |
| 2026-05-07 14:10 | -4.66605 | -33.53204 | 40924 ft | 515 kts | 53° |
| 2026-05-07 14:10 | -4.62365 | -33.47419 | 40922 ft | 515 kts | 53° |
| 2026-05-07 14:11 | -4.58126 | -33.41636 | 40923 ft | 515 kts | 53° |
| 2026-05-07 14:11 | -4.53881 | -33.35847 | 40925 ft | 514 kts | 53° |
| 2026-05-07 14:12 | -4.49619 | -33.30038 | 40922 ft | 515 kts | 53° |
| 2026-05-07 14:12 | -4.45357 | -33.24229 | 40923 ft | 515 kts | 53° |
| 2026-05-07 14:13 | -4.41115 | -33.18448 | 40922 ft | 514 kts | 53° |
| 2026-05-07 14:13 | -4.36871 | -33.12667 | 40924 ft | 513 kts | 53° |
| 2026-05-07 14:14 | -4.32655 | -33.06923 | 40923 ft | 513 kts | 53° |
| 2026-05-07 14:14 | -4.28412 | -33.01145 | 40926 ft | 513 kts | 53° |
| 2026-05-07 14:15 | -4.24193 | -32.95401 | 40923 ft | 513 kts | 53° |
| 2026-05-07 14:15 | -4.19957 | -32.89635 | 40919 ft | 513 kts | 53° |
| 2026-05-07 14:16 | -4.15737 | -32.83892 | 40923 ft | 513 kts | 53° |
| 2026-05-07 14:16 | -4.11509 | -32.78139 | 40924 ft | 512 kts | 53° |
| 2026-05-07 14:17 | -4.07282 | -32.72387 | 40925 ft | 512 kts | 53° |
| 2026-05-07 14:17 | -4.03035 | -32.66611 | 40928 ft | 513 kts | 53° |
| 2026-05-07 14:18 | -3.98825 | -32.60886 | 40916 ft | 513 kts | 53° |
| 2026-05-07 14:18 | -3.94587 | -32.55125 | 40927 ft | 514 kts | 53° |
| 2026-05-07 14:19 | -3.90342 | -32.49355 | 40938 ft | 514 kts | 53° |
| 2026-05-07 14:19 | -3.85906 | -32.43765 | 40908 ft | 511 kts | 41° |
| 2026-05-07 14:19 | -3.82883 | -32.41816 | 40966 ft | 510 kts | 26° |
| 2026-05-07 14:20 | -3.79642 | -32.40329 | 40941 ft | 513 kts | 24° |
| 2026-05-07 14:20 | -3.73092 | -32.37398 | 40930 ft | 515 kts | 24° |
| 2026-05-07 14:21 | -3.66481 | -32.34452 | 40921 ft | 515 kts | 24° |
| 2026-05-07 14:21 | -3.59883 | -32.31514 | 40910 ft | 516 kts | 24° |
| 2026-05-07 14:22 | -3.53320 | -32.28593 | 40910 ft | 516 kts | 24° |
| 2026-05-07 14:22 | -3.46672 | -32.25633 | 40916 ft | 516 kts | 24° |
| 2026-05-07 14:23 | -3.40045 | -32.22684 | 40911 ft | 518 kts | 24° |
| 2026-05-07 14:23 | -3.33430 | -32.19740 | 40916 ft | 520 kts | 24° |
| 2026-05-07 14:24 | -3.26784 | -32.16783 | 40921 ft | 521 kts | 24° |
| 2026-05-07 14:24 | -3.20158 | -32.13835 | 40923 ft | 522 kts | 24° |
| 2026-05-07 14:25 | -3.13502 | -32.10874 | 40927 ft | 521 kts | 24° |
| 2026-05-07 14:25 | -3.06843 | -32.07912 | 40927 ft | 521 kts | 24° |
| 2026-05-07 14:26 | -3.00189 | -32.04953 | 40928 ft | 522 kts | 24° |
| 2026-05-07 14:26 | -2.93548 | -32.02000 | 40925 ft | 523 kts | 24° |
| 2026-05-07 14:27 | -2.86860 | -31.99026 | 40926 ft | 523 kts | 24° |
| 2026-05-07 14:27 | -2.80175 | -31.96055 | 40924 ft | 524 kts | 24° |
| 2026-05-07 14:28 | -2.73477 | -31.93078 | 40923 ft | 524 kts | 24° |
| 2026-05-07 14:28 | -2.66787 | -31.90105 | 40922 ft | 523 kts | 24° |
| 2026-05-07 14:29 | -2.60094 | -31.87130 | 40925 ft | 522 kts | 24° |
| 2026-05-07 14:29 | -2.53430 | -31.84170 | 40926 ft | 521 kts | 24° |
| 2026-05-07 14:30 | -2.46800 | -31.81224 | 40927 ft | 522 kts | 24° |
| 2026-05-07 14:30 | -2.40129 | -31.78260 | 40926 ft | 522 kts | 24° |
| 2026-05-07 14:31 | -2.33457 | -31.75296 | 40923 ft | 522 kts | 24° |
| 2026-05-07 14:31 | -2.26816 | -31.72347 | 40922 ft | 521 kts | 24° |
| 2026-05-07 14:32 | -2.20173 | -31.69397 | 40928 ft | 521 kts | 24° |
| 2026-05-07 14:32 | -2.13553 | -31.66458 | 40922 ft | 521 kts | 24° |
| 2026-05-07 14:33 | -2.06927 | -31.63516 | 40911 ft | 521 kts | 24° |
| 2026-05-07 14:33 | -2.00269 | -31.60560 | 40904 ft | 520 kts | 24° |
| 2026-05-07 14:34 | -1.93627 | -31.57612 | 40903 ft | 521 kts | 24° |
| 2026-05-07 14:34 | -1.86996 | -31.54668 | 40904 ft | 520 kts | 24° |
| 2026-05-07 14:35 | -1.80330 | -31.51710 | 40903 ft | 520 kts | 24° |
| 2026-05-07 14:35 | -1.73715 | -31.48774 | 40905 ft | 520 kts | 24° |
| 2026-05-07 14:36 | -1.66999 | -31.45794 | 40905 ft | 520 kts | 24° |
| 2026-05-07 14:36 | -1.60348 | -31.42842 | 40904 ft | 521 kts | 24° |
| 2026-05-07 14:37 | -1.53710 | -31.39897 | 40906 ft | 521 kts | 24° |
| 2026-05-07 14:37 | -1.43711 | -31.35461 | 40904 ft | 521 kts | 24° |
| 2026-05-07 14:38 | -1.37044 | -31.32503 | 40903 ft | 521 kts | 24° |
| 2026-05-07 14:38 | -1.30374 | -31.29544 | 40904 ft | 521 kts | 24° |
| 2026-05-07 14:39 | -1.23715 | -31.26591 | 40905 ft | 522 kts | 24° |
| 2026-05-07 14:39 | -1.17018 | -31.23619 | 40907 ft | 522 kts | 24° |
| 2026-05-07 14:40 | -1.10343 | -31.20659 | 40908 ft | 521 kts | 24° |
| 2026-05-07 14:40 | -1.03689 | -31.17708 | 40904 ft | 522 kts | 24° |
| 2026-05-07 14:41 | -0.97035 | -31.14757 | 40905 ft | 522 kts | 24° |
| 2026-05-07 14:41 | -0.90387 | -31.11809 | 40907 ft | 522 kts | 24° |
| 2026-05-07 14:42 | -0.83738 | -31.08860 | 40904 ft | 522 kts | 24° |
| 2026-05-07 14:42 | -0.77066 | -31.05871 | 40904 ft | 522 kts | 24° |
| 2026-05-07 14:43 | -0.70391 | -31.02879 | 40904 ft | 522 kts | 24° |
| 2026-05-07 14:43 | -0.63707 | -30.99882 | 40908 ft | 522 kts | 24° |
| 2026-05-07 14:44 | -0.57061 | -30.96902 | 40903 ft | 522 kts | 24° |
| 2026-05-07 14:44 | -0.50441 | -30.93935 | 40904 ft | 522 kts | 24° |
| 2026-05-07 14:45 | -0.43776 | -30.90947 | 40902 ft | 522 kts | 24° |
| 2026-05-07 14:45 | -0.37132 | -30.87969 | 40903 ft | 522 kts | 24° |
| 2026-05-07 14:46 | -0.30486 | -30.84989 | 40900 ft | 523 kts | 24° |
| 2026-05-07 14:46 | -0.23882 | -30.82029 | 40902 ft | 522 kts | 24° |
| 2026-05-07 14:47 | -0.17201 | -30.79034 | 40898 ft | 522 kts | 24° |
| 2026-05-07 14:47 | -0.10533 | -30.76045 | 40889 ft | 523 kts | 24° |
| 2026-05-07 14:48 | -0.03870 | -30.73058 | 40885 ft | 522 kts | 24° |
| 2026-05-07 14:48 | 0.02789 | -30.70074 | 40887 ft | 522 kts | 24° |
| 2026-05-07 14:49 | 0.09395 | -30.67112 | 40883 ft | 522 kts | 24° |
| 2026-05-07 14:49 | 0.16118 | -30.64099 | 40896 ft | 522 kts | 24° |
| 2026-05-07 14:50 | 0.22775 | -30.61115 | 40905 ft | 523 kts | 24° |
| 2026-05-07 14:50 | 0.29446 | -30.58124 | 40900 ft | 523 kts | 24° |
| 2026-05-07 14:51 | 0.36114 | -30.55135 | 40901 ft | 522 kts | 24° |
| 2026-05-07 14:51 | 0.42846 | -30.52117 | 40905 ft | 522 kts | 24° |
| 2026-05-07 14:52 | 0.49467 | -30.49149 | 40903 ft | 522 kts | 24° |
| 2026-05-07 14:52 | 0.56141 | -30.46157 | 40904 ft | 522 kts | 24° |
| 2026-05-07 14:53 | 0.62752 | -30.43193 | 40904 ft | 521 kts | 24° |
| 2026-05-07 14:53 | 0.69425 | -30.40202 | 40904 ft | 522 kts | 24° |
| 2026-05-07 14:54 | 0.76075 | -30.37220 | 40903 ft | 522 kts | 24° |
| 2026-05-07 14:54 | 0.82759 | -30.34224 | 40903 ft | 523 kts | 24° |
| 2026-05-07 14:55 | 0.89450 | -30.31224 | 40901 ft | 522 kts | 24° |
| 2026-05-07 14:55 | 0.96093 | -30.28245 | 40901 ft | 522 kts | 24° |
| 2026-05-07 14:56 | 1.02803 | -30.25236 | 40904 ft | 522 kts | 24° |
| 2026-05-07 14:56 | 1.09448 | -30.22256 | 40903 ft | 522 kts | 24° |
| 2026-05-07 14:57 | 1.16130 | -30.19260 | 40904 ft | 521 kts | 24° |
| 2026-05-07 14:57 | 1.22800 | -30.16269 | 40903 ft | 522 kts | 24° |
| 2026-05-07 14:58 | 1.29462 | -30.13281 | 40902 ft | 522 kts | 24° |